KGDV/GDV METAR and TAF weather

Enter ICAO airport designator
Station Type Date Time Source
KGDV METAR 2019/07/18 10:56 UTC NOAA

KGDV 181056Z AUTO 28006KT 10SM CLR 16/13 A2973 RMK AO2 SLP054 T01560128


Station Type Date Time Source
KGDV Decoded METAR 2019/07/18 10:56 UTC NOAA

Glendive, Dawson Community Airport, MT, United States (KGDV) 47-08N 104-48W
Jul 18, 2019 - 06:56 AM EDT / 2019.07.18 1056 UTC
Wind: from the W (280 degrees) at 7 MPH (6 KT):0
Visibility: 10 mile(s):0
Sky conditions: clear
Temperature: 60.1 F (15.6 C)
Dew Point: 55.0 F (12.8 C)
Relative Humidity: 83%
Pressure (altimeter): 29.73 in. Hg (1006 hPa)
ob: KGDV 181056Z AUTO 28006KT 10SM CLR 16/13 A2973 RMK AO2 SLP054 T01560128
cycle: 11

Station Type Date Time Source
KGDV TAF 2019/07/18 12:22 UTC NOAA

TAF KGDV 181120Z 1812/1912 28007KT P6SM FEW100
FM182100 27017G26KT P6SM SKC
FM190500 29007KT P6SM BKN090

Example: see airport list